createdAt,value
2018-07-13T00:00:30.111Z,17.30
2018-07-13T00:02:58.411Z,17.20
2018-07-13T00:05:26.820Z,17.20
2018-07-13T00:07:55.201Z,17.20
2018-07-13T00:10:23.573Z,17.30
2018-07-13T00:12:51.943Z,17.30
2018-07-13T00:15:20.281Z,17.30
2018-07-13T00:17:48.570Z,17.40
2018-07-13T00:20:16.841Z,17.30
2018-07-13T00:22:45.119Z,17.40
2018-07-13T00:25:13.381Z,17.30
2018-07-13T00:27:41.678Z,17.30
2018-07-13T00:30:09.975Z,17.30
2018-07-13T00:32:38.366Z,17.30
2018-07-13T00:35:06.831Z,17.30
2018-07-13T00:37:35.200Z,17.30
2018-07-13T00:40:03.486Z,17.30
2018-07-13T00:42:31.856Z,17.20
2018-07-13T00:45:00.133Z,17.30
2018-07-13T00:47:28.441Z,17.30
2018-07-13T00:49:56.779Z,17.20
2018-07-13T00:52:25.096Z,17.20
2018-07-13T00:54:53.457Z,17.10
2018-07-13T00:57:21.841Z,17.00
2018-07-13T00:59:50.180Z,16.90
2018-07-13T01:02:18.513Z,16.90
2018-07-13T01:04:46.862Z,16.80
2018-07-13T01:07:15.253Z,16.70
2018-07-13T01:09:43.639Z,16.60
2018-07-13T01:12:11.973Z,16.60
2018-07-13T01:14:40.299Z,16.60
2018-07-13T01:17:08.699Z,16.50
2018-07-13T01:19:37.068Z,16.50
2018-07-13T01:22:05.443Z,16.50
2018-07-13T01:24:33.805Z,16.50
2018-07-13T01:27:02.171Z,16.50
2018-07-13T01:29:30.461Z,16.50
2018-07-13T01:31:58.704Z,16.50
2018-07-13T01:34:27.030Z,16.40
2018-07-13T01:36:55.381Z,16.40
2018-07-13T01:39:23.663Z,16.40
2018-07-13T01:41:51.904Z,16.40
2018-07-13T01:44:20.215Z,16.50
2018-07-13T01:46:48.500Z,16.50
2018-07-13T01:49:16.932Z,16.40
2018-07-13T01:51:45.243Z,16.50
2018-07-13T01:54:13.579Z,16.40
2018-07-13T01:56:41.917Z,16.40
2018-07-13T01:59:10.298Z,16.40
2018-07-13T02:01:38.642Z,16.40
2018-07-13T02:06:35.011Z,16.30
2018-07-13T02:09:03.481Z,16.30
2018-07-13T02:11:31.744Z,16.20
2018-07-13T02:14:00.040Z,16.20
2018-07-13T02:16:28.306Z,16.20
2018-07-13T02:18:56.636Z,16.20
2018-07-13T02:21:24.978Z,16.10
2018-07-13T02:23:53.313Z,16.10
2018-07-13T02:26:21.633Z,16.00
2018-07-13T02:28:49.938Z,16.00
2018-07-13T02:31:18.275Z,16.00
2018-07-13T02:33:46.677Z,16.00
2018-07-13T02:36:14.970Z,15.90
2018-07-13T02:38:43.327Z,15.90
2018-07-13T02:41:11.643Z,15.80
2018-07-13T02:43:39.971Z,15.80
2018-07-13T02:48:36.434Z,15.70
2018-07-13T02:51:04.802Z,15.70
2018-07-13T02:53:33.165Z,15.60
2018-07-13T02:56:01.488Z,15.60
2018-07-13T02:58:29.848Z,15.60
2018-07-13T03:00:58.154Z,15.60
2018-07-13T03:03:26.494Z,15.60
2018-07-13T03:05:54.802Z,15.60
2018-07-13T03:08:23.170Z,15.60
2018-07-13T03:10:51.441Z,15.60
2018-07-13T03:15:48.816Z,15.60
2018-07-13T03:18:17.111Z,15.60
2018-07-13T03:20:45.500Z,15.60
2018-07-13T03:23:13.839Z,15.70
2018-07-13T03:25:42.123Z,15.70
2018-07-13T03:28:10.399Z,15.80
2018-07-13T03:30:38.689Z,15.70
2018-07-13T03:33:07.068Z,15.70
2018-07-13T03:35:35.421Z,15.70
2018-07-13T03:38:03.774Z,15.70
2018-07-13T03:40:32.169Z,15.70
2018-07-13T03:43:01.539Z,15.80
2018-07-13T03:45:29.902Z,15.80
2018-07-13T03:47:58.245Z,15.90
2018-07-13T03:50:26.550Z,16.00
2018-07-13T03:52:54.815Z,16.10
2018-07-13T03:55:23.068Z,16.10
2018-07-13T03:57:52.406Z,16.10
2018-07-13T04:00:20.756Z,16.00
2018-07-13T04:02:49.316Z,16.10
2018-07-13T04:05:17.647Z,16.10
2018-07-13T04:07:46.051Z,16.10
2018-07-13T04:10:14.477Z,16.10
2018-07-13T04:12:42.821Z,16.10
2018-07-13T04:15:11.207Z,16.00
2018-07-13T04:17:39.578Z,16.10
2018-07-13T04:20:07.922Z,16.10
2018-07-13T04:22:36.265Z,16.10
2018-07-13T04:25:04.656Z,16.20
2018-07-13T04:27:33.781Z,16.20
2018-07-13T04:30:02.172Z,16.30
2018-07-13T04:32:30.561Z,16.40
2018-07-13T04:34:58.931Z,16.50
2018-07-13T04:37:27.270Z,17.10
2018-07-13T04:40:59.000Z,19.00
2018-07-13T04:43:27.355Z,20.90
2018-07-13T04:45:55.707Z,22.30
2018-07-13T04:48:24.005Z,22.40
2018-07-13T04:50:52.367Z,23.00
2018-07-13T04:53:20.660Z,23.80
2018-07-13T04:55:48.997Z,24.10
2018-07-13T04:58:17.311Z,24.40
2018-07-13T05:00:45.755Z,24.90
2018-07-13T05:03:14.114Z,25.10
2018-07-13T05:05:42.447Z,25.10
2018-07-13T05:08:10.848Z,25.40
2018-07-13T05:10:39.160Z,25.90
2018-07-13T05:13:07.471Z,25.90
2018-07-13T05:15:35.767Z,25.70
2018-07-13T05:18:04.300Z,25.80
2018-07-13T05:20:32.614Z,25.90
2018-07-13T05:23:01.373Z,26.30
2018-07-13T05:25:29.659Z,26.60
2018-07-13T05:27:57.983Z,27.10
2018-07-13T05:30:26.343Z,26.90
2018-07-13T05:32:54.727Z,26.70
2018-07-13T05:35:23.088Z,26.80
2018-07-13T05:37:51.389Z,27.10
2018-07-13T05:40:19.781Z,27.40
2018-07-13T05:42:48.162Z,27.60
2018-07-13T05:45:16.521Z,27.50
2018-07-13T05:47:44.927Z,27.10
2018-07-13T05:50:13.305Z,26.60
2018-07-13T05:52:41.683Z,25.80
2018-07-13T05:55:10.037Z,25.10
2018-07-13T05:57:38.398Z,24.80
2018-07-13T06:00:06.708Z,24.90
2018-07-13T06:02:35.066Z,25.80
2018-07-13T06:05:03.381Z,26.70
2018-07-13T06:07:31.716Z,27.10
2018-07-13T06:10:00.006Z,26.50
2018-07-13T06:12:28.390Z,25.80
2018-07-13T06:14:56.785Z,25.60
2018-07-13T06:17:25.134Z,26.20
2018-07-13T06:19:53.424Z,27.30
2018-07-13T06:22:21.789Z,26.50
2018-07-13T06:24:50.078Z,25.10
2018-07-13T06:27:18.339Z,24.40
2018-07-13T06:29:46.624Z,23.80
2018-07-13T06:32:14.932Z,24.40
2018-07-13T06:34:43.333Z,25.80
2018-07-13T06:37:11.676Z,27.00
2018-07-13T06:39:40.050Z,27.50
2018-07-13T06:42:08.422Z,27.10
2018-07-13T06:44:36.703Z,26.70
2018-07-13T06:47:05.207Z,27.00
2018-07-13T06:49:33.610Z,26.40
2018-07-13T06:52:01.930Z,26.40
2018-07-13T06:54:30.234Z,26.90
2018-07-13T06:56:58.599Z,27.20
2018-07-13T06:59:26.926Z,27.10
2018-07-13T07:01:55.260Z,26.90
2018-07-13T07:04:28.083Z,27.20
2018-07-13T07:06:57.083Z,27.70
2018-07-13T07:09:26.179Z,28.00
2018-07-13T07:12:17.043Z,28.60
2018-07-13T07:14:45.491Z,28.10
2018-07-13T07:17:13.785Z,27.70
2018-07-13T07:19:42.110Z,27.30
2018-07-13T07:22:10.422Z,25.80
2018-07-13T07:24:38.743Z,25.30
2018-07-13T07:27:07.137Z,24.90
2018-07-13T07:29:35.519Z,24.40
2018-07-13T07:32:03.880Z,23.60
2018-07-13T07:34:32.272Z,23.30
2018-07-13T07:37:00.636Z,22.80
2018-07-13T07:39:29.040Z,22.30
2018-07-13T07:41:57.395Z,22.20
2018-07-13T07:44:25.735Z,22.20
2018-07-13T07:46:54.069Z,21.90
2018-07-13T07:49:22.405Z,21.40
2018-07-13T07:51:50.724Z,21.10
2018-07-13T07:54:19.072Z,21.00
2018-07-13T07:56:47.750Z,20.90
2018-07-13T08:01:44.242Z,20.90
2018-07-13T08:04:12.572Z,20.90
2018-07-13T08:06:41.057Z,20.60
2018-07-13T08:09:09.254Z,20.60
2018-07-13T08:11:37.637Z,20.50
2018-07-13T08:14:06.388Z,20.50
2018-07-13T08:16:34.501Z,20.40
2018-07-13T08:19:02.782Z,20.30
2018-07-13T08:21:31.174Z,20.40
2018-07-13T08:23:59.550Z,20.80
2018-07-13T08:26:27.942Z,21.00
2018-07-13T08:28:56.327Z,21.30
2018-07-13T08:31:24.712Z,21.20
2018-07-13T08:33:53.042Z,21.00
2018-07-13T08:36:21.347Z,21.10
2018-07-13T08:38:50.620Z,21.10
2018-07-13T08:41:18.872Z,21.40
2018-07-13T08:43:47.179Z,21.00
2018-07-13T08:46:15.492Z,20.40
2018-07-13T08:48:43.835Z,20.00
2018-07-13T08:51:12.132Z,19.80
2018-07-13T08:53:40.358Z,19.40
2018-07-13T08:56:08.644Z,19.10
2018-07-13T08:58:36.966Z,19.10
2018-07-13T09:01:05.278Z,19.10
2018-07-13T09:03:33.619Z,19.20
2018-07-13T09:06:01.948Z,19.30
2018-07-13T09:08:30.294Z,19.50
2018-07-13T09:10:58.630Z,19.60
2018-07-13T09:13:26.892Z,19.70
2018-07-13T09:15:55.174Z,19.90
2018-07-13T09:18:23.526Z,19.90
2018-07-13T09:20:53.009Z,19.80
2018-07-13T09:23:21.329Z,19.80
2018-07-13T09:25:49.581Z,19.90
2018-07-13T09:28:18.032Z,19.90
2018-07-13T09:30:46.469Z,19.80
2018-07-13T09:33:14.756Z,19.90
2018-07-13T09:35:43.033Z,19.90
2018-07-13T09:38:11.321Z,20.00
2018-07-13T09:40:39.650Z,20.00
2018-07-13T09:43:07.981Z,19.70
2018-07-13T09:45:36.231Z,19.90
2018-07-13T09:48:04.555Z,19.90
2018-07-13T09:50:32.891Z,19.70
2018-07-13T09:53:01.162Z,19.90
2018-07-13T09:55:29.437Z,20.10
2018-07-13T09:57:57.730Z,20.40
2018-07-13T10:00:31.549Z,20.80
2018-07-13T10:02:59.806Z,21.00
2018-07-13T10:05:28.103Z,21.00
2018-07-13T10:10:24.465Z,21.50
2018-07-13T10:12:52.807Z,21.90
2018-07-13T10:15:21.074Z,21.70
2018-07-13T10:17:49.359Z,22.00
2018-07-13T10:20:17.656Z,22.20
2018-07-13T10:22:45.918Z,22.10
2018-07-13T10:25:14.190Z,22.20
2018-07-13T10:27:42.449Z,22.10
2018-07-13T10:30:12.546Z,21.90
2018-07-13T10:32:43.157Z,21.90
2018-07-13T10:35:11.555Z,22.40
2018-07-13T10:37:41.121Z,22.40
2018-07-13T10:40:09.391Z,22.20
2018-07-13T10:42:37.674Z,22.40
2018-07-13T10:45:06.100Z,22.50
2018-07-13T10:47:34.456Z,23.00
2018-07-13T10:50:02.837Z,23.10
2018-07-13T10:52:31.186Z,23.50
2018-07-13T10:54:59.506Z,23.80
2018-07-13T10:57:27.859Z,24.00
2018-07-13T10:59:56.127Z,23.80
2018-07-13T11:02:24.422Z,24.20
2018-07-13T11:04:52.811Z,24.30
2018-07-13T11:07:21.179Z,24.50
2018-07-13T11:09:49.455Z,24.40
2018-07-13T11:12:17.812Z,24.40
2018-07-13T11:18:43.543Z,25.00
2018-07-13T11:21:11.866Z,25.30
2018-07-13T11:23:40.195Z,25.60
2018-07-13T11:26:08.504Z,26.30
2018-07-13T11:28:36.751Z,26.80
2018-07-13T11:31:05.038Z,26.90
2018-07-13T11:33:33.355Z,27.10
2018-07-13T11:36:01.682Z,27.20
2018-07-13T11:38:29.933Z,27.10
2018-07-13T11:40:58.244Z,27.00
2018-07-13T11:43:26.537Z,27.10
2018-07-13T11:45:54.811Z,27.40
2018-07-13T11:48:23.124Z,27.50
2018-07-13T11:50:51.766Z,27.60
2018-07-13T11:53:20.136Z,27.50
2018-07-13T13:11:46.459Z,27.30
2018-07-13T13:14:14.795Z,27.60
2018-07-13T13:16:43.083Z,27.50
2018-07-13T13:19:11.387Z,27.20
2018-07-13T13:21:39.768Z,27.40
2018-07-13T13:24:08.108Z,27.50
2018-07-13T13:26:36.399Z,27.50
2018-07-13T13:29:04.691Z,27.70
2018-07-13T13:31:33.040Z,27.80
2018-07-13T13:34:01.331Z,27.70
2018-07-13T13:36:29.573Z,27.60
2018-07-13T13:38:57.862Z,27.60
2018-07-13T13:41:26.195Z,27.80
2018-07-13T13:43:54.517Z,27.70
2018-07-13T13:46:22.906Z,27.70
2018-07-13T13:48:51.173Z,27.50
2018-07-13T13:51:19.474Z,27.40
2018-07-13T13:53:47.773Z,27.40
2018-07-13T13:56:16.213Z,27.50
2018-07-13T13:58:44.494Z,27.40
2018-07-13T14:01:12.802Z,27.40
2018-07-13T14:03:41.185Z,27.40
2018-07-13T14:06:09.535Z,27.40
2018-07-13T14:11:06.099Z,27.70
2018-07-13T14:13:34.361Z,27.70
2018-07-13T14:16:02.727Z,27.70
2018-07-13T14:18:31.002Z,27.70
2018-07-13T14:20:59.359Z,27.90
2018-07-13T14:23:27.693Z,28.00
2018-07-13T14:25:55.982Z,27.90
2018-07-13T14:28:24.427Z,27.80
2018-07-13T14:30:52.711Z,27.80
2018-07-13T14:33:20.975Z,27.90
2018-07-13T14:35:49.319Z,27.70
2018-07-13T14:38:17.674Z,27.70
2018-07-13T14:40:46.053Z,27.80
2018-07-13T14:43:14.394Z,27.70
2018-07-13T14:45:42.685Z,27.80
2018-07-13T14:48:12.321Z,27.80
2018-07-13T14:50:40.667Z,27.80
2018-07-13T14:53:08.975Z,27.90
2018-07-13T14:55:37.362Z,27.60
2018-07-13T14:58:05.732Z,27.90
2018-07-13T15:00:34.158Z,28.00
2018-07-13T15:03:02.659Z,27.80
2018-07-13T15:05:31.073Z,27.60
2018-07-13T15:07:59.428Z,27.50
2018-07-13T15:12:56.059Z,28.00
2018-07-13T15:15:24.416Z,28.30
2018-07-13T15:17:52.958Z,28.30
2018-07-13T15:20:21.357Z,28.30
2018-07-13T15:22:49.818Z,28.10
2018-07-13T15:25:18.325Z,28.20
2018-07-13T15:27:46.870Z,28.00
2018-07-13T15:30:15.307Z,27.70
2018-07-13T15:32:43.858Z,27.80
2018-07-13T15:35:12.303Z,27.60
2018-07-13T15:37:40.625Z,27.60
2018-07-13T15:40:08.962Z,27.50
2018-07-13T15:42:37.275Z,27.50
2018-07-13T15:45:06.090Z,27.30
2018-07-13T15:47:34.575Z,27.40
2018-07-13T15:50:02.924Z,27.80
2018-07-13T15:52:31.226Z,27.80
2018-07-13T15:54:59.577Z,27.80
2018-07-13T15:57:27.919Z,27.70
2018-07-13T15:59:56.250Z,27.50
2018-07-13T16:02:25.104Z,27.40
2018-07-13T16:04:53.446Z,27.30
2018-07-13T16:07:21.925Z,27.30
2018-07-13T16:09:50.262Z,27.10
2018-07-13T16:12:18.537Z,26.60
2018-07-13T16:14:46.783Z,26.30
2018-07-13T16:17:15.410Z,25.90
2018-07-13T16:22:12.721Z,25.30
2018-07-13T16:24:41.037Z,25.10
2018-07-13T16:27:09.325Z,24.80
2018-07-13T16:29:37.617Z,24.60
2018-07-13T16:32:06.089Z,24.40
2018-07-13T16:34:34.761Z,24.30
2018-07-13T16:37:03.092Z,24.20
2018-07-13T16:39:31.565Z,24.10
2018-07-13T16:42:00.012Z,24.10
2018-07-13T16:44:28.733Z,24.00
2018-07-13T16:46:57.117Z,23.90
2018-07-13T16:49:25.481Z,23.90
2018-07-13T16:51:53.862Z,23.90
2018-07-13T16:54:22.246Z,23.90
2018-07-13T16:56:50.552Z,23.90
2018-07-13T16:59:18.852Z,24.00
2018-07-13T17:01:47.125Z,24.00
2018-07-13T17:04:15.452Z,24.00
2018-07-13T17:06:43.837Z,24.10
2018-07-13T17:09:12.168Z,24.10
2018-07-13T17:11:40.488Z,24.20
2018-07-13T17:14:08.925Z,24.10
2018-07-13T17:16:37.411Z,24.10
2018-07-13T17:19:05.707Z,24.10
2018-07-13T17:21:34.524Z,24.00
2018-07-13T17:24:02.881Z,24.10
2018-07-13T17:26:31.263Z,24.10
2018-07-13T17:31:27.819Z,24.20
2018-07-13T17:33:56.392Z,24.20
2018-07-13T17:36:24.761Z,24.00
2018-07-13T17:38:53.074Z,23.50
2018-07-13T17:41:21.519Z,23.10
2018-07-13T17:43:49.903Z,23.00
2018-07-13T17:46:18.258Z,22.90
2018-07-13T17:48:46.708Z,22.90
2018-07-13T17:51:15.102Z,22.90
2018-07-13T17:53:43.527Z,22.80
2018-07-13T17:56:11.870Z,22.70
2018-07-13T17:58:40.271Z,22.60
2018-07-13T18:01:08.768Z,22.60
2018-07-13T18:03:37.121Z,22.50
2018-07-13T18:06:05.567Z,22.40
2018-07-13T18:08:34.009Z,22.40
2018-07-13T18:11:02.375Z,22.30
2018-07-13T18:13:30.747Z,22.20
2018-07-13T18:15:59.087Z,22.00
2018-07-13T18:18:27.527Z,21.90
2018-07-13T18:20:55.878Z,21.90
2018-07-13T18:23:24.214Z,21.80
2018-07-13T18:25:52.599Z,21.70
2018-07-13T18:28:20.944Z,21.70
2018-07-13T18:30:49.260Z,21.60
2018-07-13T18:33:17.717Z,21.60
2018-07-13T18:35:46.172Z,21.40
2018-07-13T18:38:14.534Z,21.40
2018-07-13T18:40:43.191Z,21.20
2018-07-13T18:43:11.571Z,21.20
2018-07-13T18:45:40.020Z,21.10
2018-07-13T18:50:36.610Z,20.90
2018-07-13T18:53:05.426Z,20.90
2018-07-13T18:55:33.923Z,20.80
2018-07-13T18:58:02.872Z,20.70
2018-07-13T19:00:31.301Z,20.70
2018-07-13T19:02:59.633Z,20.60
2018-07-13T19:05:28.147Z,20.60
2018-07-13T19:07:56.662Z,20.50
2018-07-13T19:10:24.981Z,20.40
2018-07-13T19:12:53.364Z,20.30
2018-07-13T19:15:21.855Z,20.20
2018-07-13T19:17:50.209Z,20.20
2018-07-13T19:20:18.607Z,20.10
2018-07-13T19:22:47.450Z,20.00
2018-07-13T19:25:15.650Z,20.10
2018-07-13T19:27:44.083Z,20.10
2018-07-13T19:30:12.367Z,20.10
2018-07-13T19:32:40.800Z,20.10
2018-07-13T19:35:09.168Z,20.20
2018-07-13T19:37:37.524Z,20.30
2018-07-13T19:40:05.769Z,20.30
2018-07-13T19:42:34.089Z,20.30
2018-07-13T19:45:02.515Z,20.30
2018-07-13T19:47:30.812Z,20.20
2018-07-13T19:49:59.083Z,20.10
2018-07-13T19:52:27.488Z,20.10
2018-07-13T19:54:55.729Z,20.00
2018-07-13T19:57:24.131Z,19.90
2018-07-13T19:59:52.391Z,19.90
2018-07-13T20:02:20.703Z,19.90
2018-07-13T20:04:48.976Z,20.00
2018-07-13T20:07:17.360Z,20.00
2018-07-13T20:09:45.612Z,20.00
2018-07-13T20:12:13.927Z,20.00
2018-07-13T20:17:18.468Z,20.10
2018-07-13T20:22:15.889Z,19.90
2018-07-13T20:24:44.284Z,19.90
2018-07-13T20:27:12.596Z,19.80
2018-07-13T20:29:40.850Z,19.70
2018-07-13T20:32:09.152Z,19.70
2018-07-13T20:34:37.403Z,19.60
2018-07-13T20:37:05.780Z,19.60
2018-07-13T20:39:34.244Z,19.50
2018-07-13T20:42:02.506Z,19.60
2018-07-13T20:44:30.928Z,19.50
2018-07-13T20:46:59.178Z,19.50
2018-07-13T20:49:27.475Z,19.40
2018-07-13T20:51:55.810Z,19.40
2018-07-13T20:54:24.134Z,19.40
2018-07-13T20:56:52.534Z,19.30
2018-07-13T20:59:20.824Z,19.40
2018-07-13T21:01:50.083Z,19.30
2018-07-13T21:04:18.398Z,19.40
2018-07-13T21:06:46.755Z,19.40
2018-07-13T21:09:15.210Z,19.40
2018-07-13T21:11:43.500Z,19.40
2018-07-13T21:14:11.811Z,19.50
2018-07-13T21:16:40.035Z,19.50
2018-07-13T21:19:08.331Z,19.50
2018-07-13T21:21:36.609Z,19.50
2018-07-13T21:24:04.959Z,19.60
2018-07-13T21:26:33.361Z,19.60
2018-07-13T21:29:01.771Z,19.60
2018-07-13T21:31:30.066Z,19.60
2018-07-13T21:33:58.435Z,19.50
2018-07-13T21:36:26.696Z,19.40
2018-07-13T21:38:55.030Z,19.40
2018-07-13T21:41:23.325Z,19.30
2018-07-13T21:43:51.614Z,19.20
2018-07-13T21:46:20.019Z,19.20
2018-07-13T21:48:48.298Z,19.10
2018-07-13T21:51:16.542Z,19.10
2018-07-13T21:53:44.851Z,19.10
2018-07-13T21:59:36.984Z,18.80
2018-07-13T22:02:05.264Z,18.80
2018-07-13T22:04:33.516Z,18.80
2018-07-13T22:07:01.899Z,18.70
2018-07-13T22:09:30.235Z,18.60
2018-07-13T22:11:58.562Z,18.60
2018-07-13T22:14:26.849Z,18.60
2018-07-13T22:16:55.149Z,18.50
2018-07-13T22:19:23.435Z,18.60
2018-07-13T22:21:51.684Z,18.50
2018-07-13T22:24:19.952Z,18.50
2018-07-13T22:26:48.261Z,18.40
2018-07-13T22:29:16.485Z,18.30
2018-07-13T22:31:44.771Z,18.30
2018-07-13T22:34:13.104Z,18.20
2018-07-13T22:36:41.486Z,18.30
2018-07-13T22:39:09.820Z,18.30
2018-07-13T22:41:38.077Z,18.30
2018-07-13T22:44:06.382Z,18.20
2018-07-13T22:46:34.637Z,18.10
2018-07-13T22:49:02.962Z,18.10
2018-07-13T22:51:31.260Z,18.00
2018-07-13T22:53:59.597Z,18.00
2018-07-13T22:56:27.889Z,18.00
2018-07-13T22:58:56.132Z,17.90
2018-07-13T23:01:24.423Z,17.90
2018-07-13T23:03:52.670Z,17.80
2018-07-13T23:06:21.031Z,17.80
2018-07-13T23:08:49.331Z,17.70
2018-07-13T23:11:17.646Z,17.70
2018-07-13T23:13:45.903Z,17.70
2018-07-13T23:16:14.189Z,17.60
2018-07-13T23:18:42.459Z,17.60
2018-07-13T23:21:10.747Z,17.60
2018-07-13T23:23:39.014Z,17.50
2018-07-13T23:26:07.315Z,17.50
2018-07-13T23:28:35.601Z,17.40
2018-07-13T23:31:03.886Z,17.40
2018-07-13T23:33:32.215Z,17.40
2018-07-13T23:36:00.532Z,17.50
2018-07-13T23:38:28.786Z,17.40
2018-07-13T23:40:57.038Z,17.40
2018-07-13T23:43:27.411Z,17.40
2018-07-13T23:45:55.644Z,17.40
2018-07-13T23:48:24.002Z,17.40
2018-07-13T23:50:52.344Z,17.40
2018-07-13T23:53:20.604Z,17.40
2018-07-13T23:55:48.919Z,17.40
2018-07-13T23:58:17.242Z,17.40
